Time;durP1;ratioP1;P1;durP2;ratioP2;P2;SDS_P1;SDS_P2;PMS_P1;PMS_P2;Temp;Humidity;BMP_temperature;BMP_pressure;BME280_temperature;BME280_humidity;BME280_pressure;Samples;Min_cycle;Max_cycle;Signal;HPM_P1;HPM_P2
2024/02/13 00:02:41;;;;;;;4.32;1.55;;;;;;;;;;10540477;28;20055;-75
2024/02/13 00:07:46;;;;;;;7.60;2.65;;;;;;;;;;10551267;28;20039;-75
2024/02/13 00:12:51;;;;;;;3.13;1.65;;;;;;;;;;10561856;27;20054;-75
2024/02/13 00:17:55;;;;;;;2.78;1.65;;;;;;;;;;10562680;28;20035;-74
2024/02/13 00:22:59;;;;;;;5.57;1.90;;;;;;;;;;10570314;27;20196;-76
2024/02/13 00:28:02;;;;;;;5.57;1.77;;;;;;;;;;10572558;28;20043;-75
2024/02/13 00:33:06;;;;;;;5.65;2.55;;;;;;;;;;10559625;28;20358;-75
2024/02/13 00:38:09;;;;;;;5.47;1.80;;;;;;;;;;10558914;28;20130;-74
2024/02/13 00:43:17;;;;;;;3.00;1.27;;;;;;;;;;10557925;28;20480;-74
2024/02/13 00:48:21;;;;;;;4.00;1.60;;;;;;;;;;10556944;28;20047;-77
2024/02/13 00:53:24;;;;;;;4.40;2.10;;;;;;;;;;10555817;28;20104;-77
2024/02/13 00:58:27;;;;;;;3.33;1.35;;;;;;;;;;10555706;28;20036;-77
2024/02/13 01:03:31;;;;;;;1.40;0.68;;;;;;;;;;10557054;28;20407;-76
2024/02/13 01:08:34;;;;;;;4.60;1.67;;;;;;;;;;10550936;28;20039;-75
2024/02/13 01:13:38;;;;;;;2.72;1.55;;;;;;;;;;10542629;28;20429;-76
2024/02/13 01:18:42;;;;;;;4.70;1.70;;;;;;;;;;10530156;28;20467;-77
2024/02/13 01:23:45;;;;;;;4.47;1.50;;;;;;;;;;10547781;28;20036;-76
2024/02/13 01:28:48;;;;;;;5.07;1.67;;;;;;;;;;10549631;28;20067;-75
2024/02/13 01:33:52;;;;;;;2.03;1.08;;;;;;;;;;10545290;28;20051;-75
2024/02/13 01:38:58;;;;;;;4.80;1.77;;;;;;;;;;10548430;28;20119;-77
2024/02/13 01:44:03;;;;;;;4.80;1.65;;;;;;;;;;10555259;28;20048;-75
2024/02/13 01:49:09;;;;;;;1.55;0.85;;;;;;;;;;10551641;28;20272;-75
2024/02/13 01:54:12;;;;;;;3.67;1.50;;;;;;;;;;10544948;28;20560;-75
2024/02/13 01:59:15;;;;;;;3.65;1.77;;;;;;;;;;10544196;28;20043;-75
2024/02/13 02:04:19;;;;;;;2.65;1.20;;;;;;;;;;10550394;28;20043;-75
2024/02/13 02:09:23;;;;;;;;;;;;;;;;;;10559561;28;20039;-75
2024/02/13 02:14:25;;;;;;;1.40;1.15;;;;;;;;;;10558938;28;19920;-75
2024/02/13 02:19:30;;;;;;;4.15;1.50;;;;;;;;;;10555576;28;20050;-75
2024/02/13 02:24:33;;;;;;;2.90;1.50;;;;;;;;;;10550001;27;20094;-76
2024/02/13 02:29:38;;;;;;;3.40;1.00;;;;;;;;;;10548893;28;20036;-76
2024/02/13 02:34:41;;;;;;;4.97;1.30;;;;;;;;;;10556080;27;20070;-76
2024/02/13 02:39:44;;;;;;;2.78;0.73;;;;;;;;;;10561054;28;20040;-74
2024/02/13 02:44:48;;;;;;;1.48;0.93;;;;;;;;;;10555601;28;20105;-75
2024/02/13 02:49:52;;;;;;;4.95;1.88;;;;;;;;;;10554730;28;20038;-76
2024/02/13 02:54:55;;;;;;;4.93;1.40;;;;;;;;;;10543435;28;20042;-76
2024/02/13 03:00:01;;;;;;;1.40;0.68;;;;;;;;;;10552674;28;20036;-75
2024/02/13 03:05:04;;;;;;;3.53;1.15;;;;;;;;;;10558090;28;20113;-75
2024/02/13 03:10:09;;;;;;;2.37;1.37;;;;;;;;;;10548579;28;20482;-75
2024/02/13 03:15:14;;;;;;;1.70;1.13;;;;;;;;;;10556565;28;20118;-76
2024/02/13 03:20:17;;;;;;;4.10;1.45;;;;;;;;;;10546288;28;20044;-75
2024/02/13 03:25:20;;;;;;;5.30;1.38;;;;;;;;;;10550575;28;20516;-74
2024/02/13 03:30:25;;;;;;;2.37;1.00;;;;;;;;;;10556589;28;20051;-74
2024/02/13 03:35:30;;;;;;;3.65;1.30;;;;;;;;;;10544721;28;20081;-74
2024/02/13 03:40:33;;;;;;;2.38;1.15;;;;;;;;;;10557365;28;20119;-74
2024/02/13 03:45:38;;;;;;;3.08;1.40;;;;;;;;;;10531443;28;20727;-75
2024/02/13 03:50:41;;;;;;;5.40;1.35;;;;;;;;;;10547166;28;20036;-74
2024/02/13 03:55:44;;;;;;;2.47;1.20;;;;;;;;;;10547089;28;20032;-75
2024/02/13 04:00:48;;;;;;;3.33;0.95;;;;;;;;;;10556011;27;20122;-75
2024/02/13 04:05:51;;;;;;;;;;;;;;;;;;10548919;28;20047;-77
2024/02/13 04:10:54;;;;;;;4.65;1.38;;;;;;;;;;10548540;28;20323;-75
2024/02/13 04:15:59;;;;;;;1.80;0.93;;;;;;;;;;10553970;28;20036;-76
2024/02/13 04:21:02;;;;;;;3.10;1.05;;;;;;;;;;10551909;28;20116;-75
2024/02/13 04:26:05;;;;;;;2.75;0.90;;;;;;;;;;10553733;27;20040;-75
2024/02/13 04:31:24;;;;;;;1.92;0.98;;;;;;;;;;10550699;28;20485;-73
2024/02/13 04:36:27;;;;;;;1.58;1.00;;;;;;;;;;10556335;28;20643;-75
2024/02/13 04:41:30;;;;;;;8.60;1.20;;;;;;;;;;10545213;28;20534;-76
2024/02/13 04:46:34;;;;;;;5.18;1.27;;;;;;;;;;10548718;28;20126;-76
2024/02/13 04:51:37;;;;;;;2.80;0.75;;;;;;;;;;10538458;28;20032;-76
2024/02/13 04:56:40;;;;;;;2.95;1.02;;;;;;;;;;10562419;28;20474;-76
2024/02/13 05:01:45;;;;;;;7.30;1.00;;;;;;;;;;10558555;28;20584;-75
2024/02/13 05:12:08;;;;;;;2.83;1.08;;;;;;;;;;10555662;28;20123;-75
2024/02/13 05:17:12;;;;;;;2.00;1.05;;;;;;;;;;10542772;28;20119;-74
2024/02/13 05:22:15;;;;;;;2.85;0.75;;;;;;;;;;10552861;28;20042;-74
2024/02/13 05:27:18;;;;;;;2.05;1.23;;;;;;;;;;10559507;28;20096;-76
2024/02/13 05:32:22;;;;;;;0.82;0.40;;;;;;;;;;10541667;28;20040;-75
2024/02/13 05:37:25;;;;;;;1.15;0.57;;;;;;;;;;10571040;27;20035;-75
2024/02/13 05:42:28;;;;;;;0.88;0.80;;;;;;;;;;10553367;28;20040;-75
2024/02/13 05:47:35;;;;;;;6.28;1.27;;;;;;;;;;10535812;28;20559;-76
2024/02/13 05:52:39;;;;;;;2.35;0.90;;;;;;;;;;10540362;28;20035;-76
2024/02/13 05:57:42;;;;;;;1.52;0.68;;;;;;;;;;10553662;28;20064;-76
2024/02/13 06:02:46;;;;;;;0.30;0.28;;;;;;;;;;10564263;28;20465;-75
2024/02/13 06:07:50;;;;;;;5.15;1.40;;;;;;;;;;10558480;28;20153;-75
2024/02/13 06:12:52;;;;;;;1.03;0.70;;;;;;;;;;10554163;28;20043;-76
2024/02/13 06:17:56;;;;;;;1.73;0.70;;;;;;;;;;10557990;28;20492;-75
2024/02/13 06:22:59;;;;;;;1.70;0.70;;;;;;;;;;10558455;28;20043;-75
2024/02/13 06:28:01;;;;;;;5.95;1.33;;;;;;;;;;10554106;28;20059;-75
2024/02/13 06:33:06;;;;;;;2.55;0.93;;;;;;;;;;10556109;28;20043;-75
2024/02/13 06:38:09;;;;;;;0.43;0.25;;;;;;;;;;10554211;28;20035;-76
2024/02/13 06:43:12;;;;;;;3.25;1.40;;;;;;;;;;10553340;28;20127;-75
2024/02/13 06:48:17;;;;;;;8.20;1.67;;;;;;;;;;10551910;28;20036;-75
2024/02/13 06:53:20;;;;;;;5.38;1.50;;;;;;;;;;10561547;28;20515;-75
2024/02/13 06:58:23;;;;;;;4.10;1.40;;;;;;;;;;10564142;28;20035;-74
2024/02/13 07:03:29;;;;;;;5.63;1.70;;;;;;;;;;10553442;28;20146;-76
2024/02/13 07:08:33;;;;;;;3.92;1.42;;;;;;;;;;10557566;28;20370;-73
2024/02/13 07:13:36;;;;;;;1.73;0.88;;;;;;;;;;10554888;28;20077;-74
2024/02/13 07:18:42;;;;;;;4.13;1.30;;;;;;;;;;10560675;28;20093;-74
2024/02/13 07:23:44;;;;;;;7.70;1.88;;;;;;;;;;10562133;28;20047;-76
2024/02/13 07:28:48;;;;;;;4.40;1.27;;;;;;;;;;10547777;28;20512;-75
2024/02/13 07:33:52;;;;;;;4.20;1.48;;;;;;;;;;10556588;28;20467;-76
2024/02/13 07:38:56;;;;;;;2.50;0.77;;;;;;;;;;10555628;28;20039;-76
2024/02/13 07:43:58;;;;;;;1.98;1.30;;;;;;;;;;10545933;28;20125;-76
2024/02/13 07:49:03;;;;;;;4.72;1.17;;;;;;;;;;10552473;28;20114;-75
2024/02/13 07:54:06;;;;;;;4.38;1.58;;;;;;;;;;10549304;28;20046;-76
2024/02/13 07:59:09;;;;;;;5.57;1.55;;;;;;;;;;10548934;28;20114;-76
2024/02/13 08:04:14;;;;;;;5.95;1.30;;;;;;;;;;10548046;28;20119;-75
2024/02/13 08:09:18;;;;;;;6.38;1.85;;;;;;;;;;10531354;28;20130;-74
2024/02/13 08:14:20;;;;;;;4.18;1.60;;;;;;;;;;10551183;28;20067;-76
2024/02/13 08:19:26;;;;;;;5.23;1.40;;;;;;;;;;10554281;28;20413;-77
2024/02/13 08:24:28;;;;;;;5.30;1.50;;;;;;;;;;10548167;28;20520;-76
2024/02/13 08:29:31;;;;;;;4.07;1.70;;;;;;;;;;10548671;28;20450;-76
2024/02/13 08:34:35;;;;;;;2.53;1.50;;;;;;;;;;10556054;28;20039;-75
2024/02/13 08:39:38;;;;;;;4.50;2.03;;;;;;;;;;10550696;28;20044;-76
2024/02/13 08:44:42;;;;;;;1.70;1.40;;;;;;;;;;10532735;28;20043;-75
2024/02/13 08:49:46;;;;;;;7.35;2.25;;;;;;;;;;10548332;28;20047;-76
2024/02/13 08:54:50;;;;;;;5.10;2.10;;;;;;;;;;10553160;28;20097;-76
2024/02/13 08:59:54;;;;;;;3.50;2.08;;;;;;;;;;10556037;28;20385;-76
2024/02/13 09:05:00;;;;;;;4.85;2.20;;;;;;;;;;10553762;28;20032;-77
2024/02/13 09:10:05;;;;;;;5.45;2.00;;;;;;;;;;10544189;28;20040;-76
2024/02/13 09:15:11;;;;;;;7.25;2.55;;;;;;;;;;10555480;27;20473;-77
2024/02/13 09:20:21;;;;;;;4.90;1.60;;;;;;;;;;10561276;28;20477;-76
2024/02/13 09:25:24;;;;;;;6.30;2.50;;;;;;;;;;10553096;28;20581;-77
2024/02/13 09:30:26;;;;;;;5.75;1.70;;;;;;;;;;10559865;28;20043;-76
2024/02/13 09:35:29;;;;;;;;;;;;;;;;;;10568040;27;20040;-76
2024/02/13 09:40:34;;;;;;;4.80;2.03;;;;;;;;;;10557673;28;20060;-78
2024/02/13 09:45:39;;;;;;;4.70;1.50;;;;;;;;;;10553108;28;20275;-77
2024/02/13 09:50:44;;;;;;;3.70;1.90;;;;;;;;;;10559917;28;20051;-77
2024/02/13 09:55:49;;;;;;;6.70;1.95;;;;;;;;;;10553614;28;20042;-77
2024/02/13 10:00:52;;;;;;;6.15;2.00;;;;;;;;;;10567718;28;20047;-78
2024/02/13 10:05:58;;;;;;;5.38;1.55;;;;;;;;;;10560375;28;20035;-76
2024/02/13 10:11:04;;;;;;;3.42;1.23;;;;;;;;;;10556472;28;20058;-77
2024/02/13 10:16:17;;;;;;;4.25;1.48;;;;;;;;;;10560802;28;20035;-77
2024/02/13 10:21:21;;;;;;;4.07;1.40;;;;;;;;;;10562950;27;20044;-76
2024/02/13 10:26:25;;;;;;;2.67;1.10;;;;;;;;;;10548891;28;20055;-77
2024/02/13 10:31:34;;;;;;;3.72;1.10;;;;;;;;;;10554074;28;20058;-75
2024/02/13 10:36:37;;;;;;;2.80;1.10;;;;;;;;;;10553650;28;20043;-76
2024/02/13 10:41:44;;;;;;;3.13;1.25;;;;;;;;;;10555893;28;20036;-76
2024/02/13 10:46:49;;;;;;;1.85;0.80;;;;;;;;;;10554129;28;20127;-77
2024/02/13 10:51:55;;;;;;;3.70;1.15;;;;;;;;;;10554894;28;20040;-76
2024/02/13 10:57:02;;;;;;;6.95;1.40;;;;;;;;;;10550208;28;20027;-75
2024/02/13 11:02:07;;;;;;;3.95;1.10;;;;;;;;;;10551801;28;20500;-76
2024/02/13 11:07:12;;;;;;;6.35;1.30;;;;;;;;;;10553919;28;20420;-76
2024/02/13 11:12:17;;;;;;;3.42;2.00;;;;;;;;;;10546921;28;20039;-75
2024/02/13 11:17:20;;;;;;;3.28;1.30;;;;;;;;;;10557494;28;20416;-75
2024/02/13 11:22:32;;;;;;;5.38;1.80;;;;;;;;;;10549825;28;20032;-75
2024/02/13 11:27:37;;;;;;;4.07;2.25;;;;;;;;;;10552922;28;20138;-76
2024/02/13 11:32:44;;;;;;;6.03;2.10;;;;;;;;;;10554616;28;20067;-75
2024/02/13 11:37:48;;;;;;;3.60;1.50;;;;;;;;;;10550417;28;20158;-76
2024/02/13 11:42:53;;;;;;;3.33;1.40;;;;;;;;;;10551701;28;20040;-75
2024/02/13 11:47:56;;;;;;;4.13;1.60;;;;;;;;;;10548809;28;20047;-74
2024/02/13 11:53:01;;;;;;;4.03;1.77;;;;;;;;;;10553591;28;20449;-76
2024/02/13 11:58:06;;;;;;;4.95;1.58;;;;;;;;;;10562683;28;20047;-77
2024/02/13 12:03:08;;;;;;;3.35;1.63;;;;;;;;;;10549909;28;20119;-76
2024/02/13 12:08:11;;;;;;;3.42;1.60;;;;;;;;;;10558678;28;20089;-76
2024/02/13 12:13:17;;;;;;;3.20;1.83;;;;;;;;;;10550408;28;20511;-76
2024/02/13 12:18:20;;;;;;;3.08;1.23;;;;;;;;;;10548099;28;20048;-76
2024/02/13 12:23:23;;;;;;;;;;;;;;;;;;10551159;28;20377;-76
2024/02/13 12:28:28;;;;;;;2.77;1.30;;;;;;;;;;10545493;28;20389;-76
2024/02/13 12:33:32;;;;;;;1.70;1.40;;;;;;;;;;10546029;28;20047;-76
2024/02/13 12:38:36;;;;;;;4.28;1.70;;;;;;;;;;10546752;28;20263;-77
2024/02/13 12:43:41;;;;;;;4.28;1.20;;;;;;;;;;10548963;28;20066;-76
2024/02/13 12:48:44;;;;;;;1.25;0.90;;;;;;;;;;10532392;28;20093;-75
2024/02/13 12:53:50;;;;;;;6.45;1.83;;;;;;;;;;10552244;28;20064;-76
2024/02/13 12:58:54;;;;;;;5.63;1.23;;;;;;;;;;10565784;27;20327;-76
2024/02/13 13:03:58;;;;;;;2.92;1.60;;;;;;;;;;10543561;28;20055;-77
2024/02/13 13:09:03;;;;;;;3.25;1.00;;;;;;;;;;10543656;28;20127;-77
2024/02/13 13:14:20;;;;;;;4.63;1.23;;;;;;;;;;10551785;28;20064;-77
2024/02/13 13:19:26;;;;;;;4.63;1.60;;;;;;;;;;10551444;28;20048;-76
2024/02/13 13:24:31;;;;;;;2.47;1.17;;;;;;;;;;10552558;28;20122;-76
2024/02/13 13:29:38;;;;;;;2.78;1.50;;;;;;;;;;10545815;28;20133;-76
2024/02/13 13:34:43;;;;;;;2.50;1.52;;;;;;;;;;10553903;28;20036;-76
2024/02/13 13:39:47;;;;;;;3.03;1.50;;;;;;;;;;10548160;28;20040;-76
2024/02/13 13:44:51;;;;;;;5.13;1.55;;;;;;;;;;10552512;28;20100;-76
2024/02/13 13:49:55;;;;;;;2.35;1.02;;;;;;;;;;10553787;28;20043;-75
2024/02/13 13:54:57;;;;;;;2.90;1.05;;;;;;;;;;10543226;28;20101;-76
2024/02/13 14:00:08;;;;;;;3.58;1.00;;;;;;;;;;10547415;28;20039;-76
2024/02/13 14:05:11;;;;;;;3.70;1.20;;;;;;;;;;10559882;28;20040;-75
2024/02/13 14:10:16;;;;;;;3.45;1.20;;;;;;;;;;10554530;28;20074;-76
2024/02/13 14:15:22;;;;;;;1.35;1.00;;;;;;;;;;10559666;28;20046;-75
2024/02/13 14:20:25;;;;;;;2.28;1.00;;;;;;;;;;10558752;28;20044;-75
2024/02/13 14:25:28;;;;;;;3.85;1.73;;;;;;;;;;10549584;28;20566;-75
2024/02/13 14:30:32;;;;;;;2.87;1.03;;;;;;;;;;10563955;28;20495;-76
2024/02/13 14:35:36;;;;;;;2.63;1.02;;;;;;;;;;10553489;28;20065;-77
2024/02/13 14:40:39;;;;;;;1.10;1.00;;;;;;;;;;10565300;28;20119;-75
2024/02/13 14:45:45;;;;;;;1.20;0.90;;;;;;;;;;10560798;28;20040;-75
2024/02/13 14:50:48;;;;;;;3.28;0.93;;;;;;;;;;10546434;28;20048;-76
2024/02/13 14:55:51;;;;;;;2.03;0.87;;;;;;;;;;10553959;28;20037;-77
2024/02/13 15:00:55;;;;;;;3.13;0.73;;;;;;;;;;10557560;28;20538;-76
2024/02/13 15:05:59;;;;;;;3.95;1.00;;;;;;;;;;10537308;28;20044;-76
2024/02/13 15:11:03;;;;;;;1.63;1.00;;;;;;;;;;10550368;28;20043;-76
2024/02/13 15:16:07;;;;;;;1.75;0.90;;;;;;;;;;10551974;28;20625;-76
2024/02/13 15:21:10;;;;;;;1.33;0.57;;;;;;;;;;10551089;28;20048;-77
2024/02/13 15:26:13;;;;;;;4.55;1.20;;;;;;;;;;10525847;28;20036;-75
2024/02/13 15:31:18;;;;;;;2.35;1.05;;;;;;;;;;10550277;28;20078;-76
2024/02/13 15:36:31;;;;;;;4.57;1.08;;;;;;;;;;10555092;28;20089;-76
2024/02/13 15:47:03;;;;;;;2.85;1.08;;;;;;;;;;10531401;28;19920;-77
2024/02/13 15:52:06;;;;;;;6.20;1.25;;;;;;;;;;10558346;28;20044;-76
2024/02/13 15:57:12;;;;;;;2.50;1.00;;;;;;;;;;10555505;28;20043;-76
2024/02/13 16:02:17;;;;;;;5.68;1.08;;;;;;;;;;10550970;28;20036;-76
2024/02/13 16:07:22;;;;;;;9.00;1.42;;;;;;;;;;10550271;28;20505;-76
2024/02/13 16:12:25;;;;;;;6.35;1.30;;;;;;;;;;10548491;28;20056;-76
2024/02/13 16:17:30;;;;;;;6.38;1.27;;;;;;;;;;10559621;28;20075;-75
2024/02/13 16:22:35;;;;;;;4.43;1.38;;;;;;;;;;10555581;28;20354;-75
2024/02/13 16:27:38;;;;;;;5.25;1.42;;;;;;;;;;10552354;28;20060;-75
2024/02/13 16:32:42;;;;;;;3.90;1.27;;;;;;;;;;10545763;28;20051;-75
2024/02/13 16:37:45;;;;;;;3.58;1.23;;;;;;;;;;10553582;28;20127;-75
2024/02/13 16:42:52;;;;;;;3.03;1.30;;;;;;;;;;10544077;27;20226;-76
2024/02/13 16:48:00;;;;;;;5.85;1.38;;;;;;;;;;10563826;27;20048;-75
2024/02/13 16:53:04;;;;;;;3.03;1.38;;;;;;;;;;10552951;28;20256;-76
2024/02/13 16:58:08;;;;;;;5.75;1.50;;;;;;;;;;10558865;28;20562;-74
2024/02/13 17:03:13;;;;;;;2.47;1.27;;;;;;;;;;10550988;28;20502;-75
2024/02/13 17:08:16;;;;;;;4.72;1.58;;;;;;;;;;10546912;28;20467;-76
2024/02/13 17:13:18;;;;;;;4.25;1.13;;;;;;;;;;10553536;28;20321;-75
2024/02/13 17:18:23;;;;;;;4.18;1.38;;;;;;;;;;10546098;28;20055;-76
2024/02/13 17:23:25;;;;;;;;;;;;;;;;;;10549180;28;20043;-75
2024/02/13 17:28:29;;;;;;;3.10;1.20;;;;;;;;;;10544823;28;20000;-75
2024/02/13 17:33:33;;;;;;;4.35;1.55;;;;;;;;;;10552067;28;20044;-75
2024/02/13 17:38:36;;;;;;;6.75;2.03;;;;;;;;;;10556449;28;20040;-75
2024/02/13 17:43:40;;;;;;;;;;;;;;;;;;10557359;28;20116;-75
2024/02/13 17:48:44;;;;;;;5.88;1.83;;;;;;;;;;10556486;28;19926;-75
2024/02/13 17:53:47;;;;;;;5.97;2.00;;;;;;;;;;10561001;28;20040;-75
2024/02/13 17:58:49;;;;;;;3.75;1.77;;;;;;;;;;10553697;28;20047;-74
2024/02/13 18:03:54;;;;;;;4.82;1.70;;;;;;;;;;10555498;28;20539;-75
2024/02/13 18:08:56;;;;;;;;;;;;;;;;;;10554291;28;20464;-75
2024/02/13 18:13:59;;;;;;;8.35;1.98;;;;;;;;;;10557098;28;19924;-76
2024/02/13 18:19:05;;;;;;;3.78;1.85;;;;;;;;;;10562412;28;20126;-76
2024/02/13 18:24:09;;;;;;;9.70;2.78;;;;;;;;;;10553409;28;20102;-76
2024/02/13 18:29:13;;;;;;;8.23;3.10;;;;;;;;;;10557344;28;21269;-76
2024/02/13 18:34:18;;;;;;;10.20;2.58;;;;;;;;;;10557065;27;20040;-75
2024/02/13 18:39:21;;;;;;;8.55;3.97;;;;;;;;;;10557798;27;20068;-74
2024/02/13 18:44:24;;;;;;;9.45;3.65;;;;;;;;;;10557142;28;20485;-74
2024/02/13 18:49:28;;;;;;;14.52;5.18;;;;;;;;;;10554501;28;20043;-75
2024/02/13 18:54:31;;;;;;;5.85;3.60;;;;;;;;;;10553535;28;20131;-75
2024/02/13 18:59:34;;;;;;;3.97;1.40;;;;;;;;;;10557132;28;20040;-73
2024/02/13 19:04:45;;;;;;;11.15;3.55;;;;;;;;;;10559527;28;20040;-75
2024/02/13 19:09:48;;;;;;;8.55;3.50;;;;;;;;;;10550527;28;20063;-74
2024/02/13 19:14:50;;;;;;;9.50;3.75;;;;;;;;;;10560767;28;20082;-75
2024/02/13 19:19:55;;;;;;;10.18;4.00;;;;;;;;;;10556602;28;20039;-75
2024/02/13 19:24:58;;;;;;;10.18;3.70;;;;;;;;;;10556634;28;20066;-75
2024/02/13 19:30:00;;;;;;;18.02;5.80;;;;;;;;;;10558392;28;20052;-75
2024/02/13 19:35:07;;;;;;;12.65;4.00;;;;;;;;;;10543910;28;20328;-74
2024/02/13 19:40:10;;;;;;;10.38;4.85;;;;;;;;;;10561134;28;20047;-75
2024/02/13 19:45:14;;;;;;;14.07;4.27;;;;;;;;;;10560255;28;20489;-75
2024/02/13 19:50:19;;;;;;;14.77;4.53;;;;;;;;;;10550575;28;20044;-75
2024/02/13 19:55:22;;;;;;;11.55;4.22;;;;;;;;;;10554762;28;20060;-76
2024/02/13 20:00:25;;;;;;;14.95;5.22;;;;;;;;;;10535270;28;20032;-76
2024/02/13 20:05:29;;;;;;;12.52;4.47;;;;;;;;;;10554297;28;20142;-75
2024/02/13 20:10:34;;;;;;;13.98;5.78;;;;;;;;;;10556392;28;20107;-75
2024/02/13 20:15:39;;;;;;;13.45;3.92;;;;;;;;;;10551796;28;20575;-75
2024/02/13 20:20:43;;;;;;;5.30;1.45;;;;;;;;;;10555392;28;20105;-74
2024/02/13 20:25:46;;;;;;;14.13;4.28;;;;;;;;;;10552492;28;20131;-75
2024/02/13 20:30:49;;;;;;;8.93;3.65;;;;;;;;;;10549422;28;20044;-77
2024/02/13 20:35:58;;;;;;;6.85;3.17;;;;;;;;;;10547468;28;20089;-72
2024/02/13 20:41:01;;;;;;;8.60;3.15;;;;;;;;;;10550884;28;20044;-75
2024/02/13 20:46:04;;;;;;;7.35;2.75;;;;;;;;;;10550698;27;20044;-75
2024/02/13 20:51:09;;;;;;;11.33;2.87;;;;;;;;;;10553759;27;20127;-75
2024/02/13 20:56:12;;;;;;;2.97;1.27;;;;;;;;;;10551210;28;20043;-75
2024/02/13 21:01:15;;;;;;;9.15;3.83;;;;;;;;;;10559736;28;20044;-74
2024/02/13 21:06:21;;;;;;;10.45;4.50;;;;;;;;;;10563184;28;20051;-75
2024/02/13 21:11:25;;;;;;;9.80;2.75;;;;;;;;;;10567174;27;20063;-75
2024/02/13 21:16:29;;;;;;;8.02;3.03;;;;;;;;;;10566442;27;20044;-75
2024/02/13 21:26:54;;;;;;;5.35;2.35;;;;;;;;;;10560826;27;20040;-76
2024/02/13 21:31:57;;;;;;;5.65;2.40;;;;;;;;;;10567419;27;20123;-76
2024/02/13 21:37:01;;;;;;;2.75;1.33;;;;;;;;;;10565018;27;20249;-75
2024/02/13 21:42:04;;;;;;;5.45;2.28;;;;;;;;;;10559315;27;20131;-74
2024/02/13 21:47:08;;;;;;;6.22;2.50;;;;;;;;;;10567797;27;20063;-74
2024/02/13 21:52:12;;;;;;;21.83;6.30;;;;;;;;;;10564185;27;20494;-74
2024/02/13 21:57:15;;;;;;;9.35;3.55;;;;;;;;;;10555297;27;20135;-74
2024/02/13 22:02:17;;;;;;;17.20;6.00;;;;;;;;;;10569290;27;20050;-76
2024/02/13 22:07:21;;;;;;;7.45;2.42;;;;;;;;;;10568795;27;20060;-76
2024/02/13 22:12:24;;;;;;;1.88;0.88;;;;;;;;;;10559481;27;20051;-76
2024/02/13 22:17:28;;;;;;;2.92;0.93;;;;;;;;;;10565489;27;20701;-75
2024/02/13 22:22:33;;;;;;;4.68;2.40;;;;;;;;;;10562392;28;20097;-75
2024/02/13 22:27:36;;;;;;;5.53;2.40;;;;;;;;;;10553631;28;20496;-75
2024/02/13 22:32:42;;;;;;;12.13;3.63;;;;;;;;;;10555523;28;20103;-75
2024/02/13 22:37:47;;;;;;;6.22;2.40;;;;;;;;;;10558797;27;20396;-74
2024/02/13 22:42:50;;;;;;;3.20;1.13;;;;;;;;;;10556838;27;20048;-74
2024/02/13 22:47:57;;;;;;;6.85;2.30;;;;;;;;;;10552742;28;20568;-74
2024/02/13 22:53:02;;;;;;;1.52;0.45;;;;;;;;;;10537862;28;20036;-76
2024/02/13 22:58:06;;;;;;;5.93;2.78;;;;;;;;;;10560366;28;20388;-75
2024/02/13 23:03:09;;;;;;;1.55;1.00;;;;;;;;;;10560783;28;20036;-76
2024/02/13 23:08:16;;;;;;;3.73;1.80;;;;;;;;;;10557848;27;20450;-76
2024/02/13 23:13:19;;;;;;;2.38;1.25;;;;;;;;;;10562176;28;20525;-75
2024/02/13 23:18:21;;;;;;;4.88;2.00;;;;;;;;;;10543522;28;20039;-74
2024/02/13 23:23:26;;;;;;;3.72;2.00;;;;;;;;;;10554201;28;20485;-74
2024/02/13 23:28:31;;;;;;;4.90;2.20;;;;;;;;;;10555178;28;20040;-75
2024/02/13 23:33:46;;;;;;;2.05;1.00;;;;;;;;;;10554356;28;20043;-78
2024/02/13 23:38:51;;;;;;;2.45;0.38;;;;;;;;;;10548581;27;20063;-74
2024/02/13 23:43:54;;;;;;;0.85;0.85;;;;;;;;;;10558478;27;20040;-75
2024/02/13 23:48:57;;;;;;;0.88;0.55;;;;;;;;;;10552063;28;20036;-74
2024/02/13 23:54:01;;;;;;;0.55;0.47;;;;;;;;;;10545890;28;20444;-75
2024/02/13 23:59:05;;;;;;;0.63;0.60;;;;;;;;;;10553112;28;20612;-75
